sensor_id;sensor_type;location;lat;lon;timestamp;temperature;humidity
23637;DHT22;11995;50.842;4.456;2022-08-19T00:02:18;20.60;99.90
23637;DHT22;11995;50.842;4.456;2022-08-19T00:04:45;20.70;99.90
23637;DHT22;11995;50.842;4.456;2022-08-19T00:07:13;20.70;99.90
23637;DHT22;11995;50.842;4.456;2022-08-19T00:09:41;20.80;99.90
23637;DHT22;11995;50.842;4.456;2022-08-19T00:12:07;20.80;99.90
23637;DHT22;11995;50.842;4.456;2022-08-19T00:14:34;20.80;99.90
23637;DHT22;11995;50.842;4.456;2022-08-19T00:17:01;20.80;99.90
23637;DHT22;11995;50.842;4.456;2022-08-19T00:19:28;20.90;99.90
23637;DHT22;11995;50.842;4.456;2022-08-19T00:21:55;20.80;99.90
23637;DHT22;11995;50.842;4.456;2022-08-19T00:24:22;20.80;99.90
23637;DHT22;11995;50.842;4.456;2022-08-19T00:26:49;20.80;99.90
23637;DHT22;11995;50.842;4.456;2022-08-19T00:29:17;20.80;99.90
23637;DHT22;11995;50.842;4.456;2022-08-19T00:31:45;20.70;99.90
23637;DHT22;11995;50.842;4.456;2022-08-19T00:34:13;20.80;99.90
23637;DHT22;11995;50.842;4.456;2022-08-19T00:36:41;20.70;99.90
23637;DHT22;11995;50.842;4.456;2022-08-19T00:39:08;20.60;99.90
23637;DHT22;11995;50.842;4.456;2022-08-19T00:41:36;20.60;99.90
23637;DHT22;11995;50.842;4.456;2022-08-19T00:44:07;20.60;99.90
23637;DHT22;11995;50.842;4.456;2022-08-19T00:46:37;20.60;99.90
23637;DHT22;11995;50.842;4.456;2022-08-19T00:49:27;20.60;99.90
23637;DHT22;11995;50.842;4.456;2022-08-19T00:51:32;20.60;99.90
23637;DHT22;11995;50.842;4.456;2022-08-19T00:53:59;20.50;99.90
23637;DHT22;11995;50.842;4.456;2022-08-19T00:56:27;20.50;99.90
23637;DHT22;11995;50.842;4.456;2022-08-19T00:58:54;20.20;99.90
23637;DHT22;11995;50.842;4.456;2022-08-19T01:01:22;20.20;99.90
23637;DHT22;11995;50.842;4.456;2022-08-19T01:03:49;20.20;99.90
23637;DHT22;11995;50.842;4.456;2022-08-19T01:06:16;20.20;99.90
23637;DHT22;11995;50.842;4.456;2022-08-19T01:08:43;20.20;99.90
23637;DHT22;11995;50.842;4.456;2022-08-19T01:11:10;20.20;99.90
23637;DHT22;11995;50.842;4.456;2022-08-19T01:13:37;20.30;99.90
23637;DHT22;11995;50.842;4.456;2022-08-19T01:16:06;20.40;99.90
23637;DHT22;11995;50.842;4.456;2022-08-19T01:18:32;20.50;99.90
23637;DHT22;11995;50.842;4.456;2022-08-19T01:21:02;20.40;99.90
23637;DHT22;11995;50.842;4.456;2022-08-19T01:23:29;20.40;99.90
23637;DHT22;11995;50.842;4.456;2022-08-19T01:26:15;20.40;99.90
23637;DHT22;11995;50.842;4.456;2022-08-19T01:28:43;20.40;99.90
23637;DHT22;11995;50.842;4.456;2022-08-19T01:31:13;20.40;99.90
23637;DHT22;11995;50.842;4.456;2022-08-19T01:33:38;20.40;99.90
23637;DHT22;11995;50.842;4.456;2022-08-19T01:36:10;20.40;99.90
23637;DHT22;11995;50.842;4.456;2022-08-19T01:38:37;20.40;99.90
23637;DHT22;11995;50.842;4.456;2022-08-19T01:41:04;20.40;99.90
23637;DHT22;11995;50.842;4.456;2022-08-19T01:43:33;20.30;99.90
23637;DHT22;11995;50.842;4.456;2022-08-19T01:46:01;20.20;99.90
23637;DHT22;11995;50.842;4.456;2022-08-19T01:48:40;20.10;99.90
23637;DHT22;11995;50.842;4.456;2022-08-19T01:51:07;20.10;99.90
23637;DHT22;11995;50.842;4.456;2022-08-19T01:53:34;20.10;99.90
23637;DHT22;11995;50.842;4.456;2022-08-19T01:56:03;20.20;99.90
23637;DHT22;11995;50.842;4.456;2022-08-19T01:58:32;20.20;99.90
23637;DHT22;11995;50.842;4.456;2022-08-19T02:00:58;20.30;99.90
23637;DHT22;11995;50.842;4.456;2022-08-19T02:03:25;20.20;99.90
23637;DHT22;11995;50.842;4.456;2022-08-19T02:05:56;20.20;99.90
23637;DHT22;11995;50.842;4.456;2022-08-19T02:08:30;20.10;99.90
23637;DHT22;11995;50.842;4.456;2022-08-19T02:10:53;20.10;99.90
23637;DHT22;11995;50.842;4.456;2022-08-19T02:13:20;20.10;99.90
23637;DHT22;11995;50.842;4.456;2022-08-19T02:15:47;20.10;99.90
23637;DHT22;11995;50.842;4.456;2022-08-19T02:18:14;20.10;99.90
23637;DHT22;11995;50.842;4.456;2022-08-19T02:20:41;20.00;99.90
23637;DHT22;11995;50.842;4.456;2022-08-19T02:23:08;20.00;99.90
23637;DHT22;11995;50.842;4.456;2022-08-19T02:25:36;19.80;99.90
23637;DHT22;11995;50.842;4.456;2022-08-19T02:28:03;19.70;99.90
23637;DHT22;11995;50.842;4.456;2022-08-19T02:30:31;19.50;99.90
23637;DHT22;11995;50.842;4.456;2022-08-19T02:32:58;19.50;99.90
23637;DHT22;11995;50.842;4.456;2022-08-19T02:35:26;19.40;99.90
23637;DHT22;11995;50.842;4.456;2022-08-19T02:37:53;19.40;99.90
23637;DHT22;11995;50.842;4.456;2022-08-19T02:40:38;19.50;99.90
23637;DHT22;11995;50.842;4.456;2022-08-19T02:43:07;19.50;99.90
23637;DHT22;11995;50.842;4.456;2022-08-19T02:45:35;19.50;99.90
23637;DHT22;11995;50.842;4.456;2022-08-19T02:48:02;19.50;99.90
23637;DHT22;11995;50.842;4.456;2022-08-19T02:50:30;19.40;99.90
23637;DHT22;11995;50.842;4.456;2022-08-19T02:52:57;19.40;99.90
23637;DHT22;11995;50.842;4.456;2022-08-19T02:55:24;19.40;99.90
23637;DHT22;11995;50.842;4.456;2022-08-19T02:57:51;19.40;99.90
23637;DHT22;11995;50.842;4.456;2022-08-19T03:00:17;19.40;99.90
23637;DHT22;11995;50.842;4.456;2022-08-19T03:02:44;19.50;99.90
23637;DHT22;11995;50.842;4.456;2022-08-19T03:05:12;19.50;99.90
23637;DHT22;11995;50.842;4.456;2022-08-19T03:07:39;19.30;99.90
23637;DHT22;11995;50.842;4.456;2022-08-19T03:10:06;19.20;99.90
23637;DHT22;11995;50.842;4.456;2022-08-19T03:12:37;19.20;99.90
23637;DHT22;11995;50.842;4.456;2022-08-19T03:15:05;19.20;99.90
23637;DHT22;11995;50.842;4.456;2022-08-19T03:17:33;19.20;99.90
23637;DHT22;11995;50.842;4.456;2022-08-19T03:20:00;19.20;99.90
23637;DHT22;11995;50.842;4.456;2022-08-19T03:22:27;19.10;99.90
23637;DHT22;11995;50.842;4.456;2022-08-19T03:24:56;19.00;99.90
23637;DHT22;11995;50.842;4.456;2022-08-19T03:27:23;19.00;99.90
23637;DHT22;11995;50.842;4.456;2022-08-19T03:29:49;19.00;99.90
23637;DHT22;11995;50.842;4.456;2022-08-19T03:32:17;18.90;99.90
23637;DHT22;11995;50.842;4.456;2022-08-19T03:34:43;19.00;99.90
23637;DHT22;11995;50.842;4.456;2022-08-19T03:37:11;19.10;99.90
23637;DHT22;11995;50.842;4.456;2022-08-19T03:39:39;19.10;99.90
23637;DHT22;11995;50.842;4.456;2022-08-19T03:42:06;19.10;99.90
23637;DHT22;11995;50.842;4.456;2022-08-19T03:44:33;19.10;99.90
23637;DHT22;11995;50.842;4.456;2022-08-19T03:47:01;19.00;99.90
23637;DHT22;11995;50.842;4.456;2022-08-19T03:49:29;18.90;99.90
23637;DHT22;11995;50.842;4.456;2022-08-19T03:51:57;18.80;99.90
23637;DHT22;11995;50.842;4.456;2022-08-19T03:54:26;18.60;99.90
23637;DHT22;11995;50.842;4.456;2022-08-19T03:56:54;18.50;99.90
23637;DHT22;11995;50.842;4.456;2022-08-19T03:59:32;18.50;99.90
23637;DHT22;11995;50.842;4.456;2022-08-19T04:02:00;18.50;99.90
23637;DHT22;11995;50.842;4.456;2022-08-19T04:04:29;18.40;99.90
23637;DHT22;11995;50.842;4.456;2022-08-19T04:06:57;18.30;99.90
23637;DHT22;11995;50.842;4.456;2022-08-19T04:09:24;18.30;99.90
23637;DHT22;11995;50.842;4.456;2022-08-19T04:11:52;18.30;99.90
23637;DHT22;11995;50.842;4.456;2022-08-19T04:14:20;18.30;99.90
23637;DHT22;11995;50.842;4.456;2022-08-19T04:16:48;18.20;99.90
23637;DHT22;11995;50.842;4.456;2022-08-19T04:19:16;18.20;99.90
23637;DHT22;11995;50.842;4.456;2022-08-19T04:21:44;18.20;99.90
23637;DHT22;11995;50.842;4.456;2022-08-19T04:24:12;18.10;99.90
23637;DHT22;11995;50.842;4.456;2022-08-19T04:26:39;18.20;99.90
23637;DHT22;11995;50.842;4.456;2022-08-19T04:29:07;18.20;99.90
23637;DHT22;11995;50.842;4.456;2022-08-19T04:31:34;18.30;99.90
23637;DHT22;11995;50.842;4.456;2022-08-19T04:34:03;18.30;99.90
23637;DHT22;11995;50.842;4.456;2022-08-19T04:36:32;18.30;99.90
23637;DHT22;11995;50.842;4.456;2022-08-19T04:39:01;18.30;99.90
23637;DHT22;11995;50.842;4.456;2022-08-19T04:41:26;18.20;99.90
23637;DHT22;11995;50.842;4.456;2022-08-19T04:44:12;18.30;99.90
23637;DHT22;11995;50.842;4.456;2022-08-19T04:46:39;18.30;99.90
23637;DHT22;11995;50.842;4.456;2022-08-19T04:49:07;18.30;99.90
23637;DHT22;11995;50.842;4.456;2022-08-19T04:51:34;18.20;99.90
23637;DHT22;11995;50.842;4.456;2022-08-19T04:54:02;18.30;99.90
23637;DHT22;11995;50.842;4.456;2022-08-19T04:56:29;18.40;99.90
23637;DHT22;11995;50.842;4.456;2022-08-19T04:58:56;18.40;99.90
23637;DHT22;11995;50.842;4.456;2022-08-19T05:01:25;18.50;99.90
23637;DHT22;11995;50.842;4.456;2022-08-19T05:03:52;18.50;99.90
23637;DHT22;11995;50.842;4.456;2022-08-19T05:06:19;18.60;99.90
23637;DHT22;11995;50.842;4.456;2022-08-19T05:08:48;18.50;99.90
23637;DHT22;11995;50.842;4.456;2022-08-19T05:13:43;18.50;99.90
23637;DHT22;11995;50.842;4.456;2022-08-19T05:16:10;18.60;99.90
23637;DHT22;11995;50.842;4.456;2022-08-19T05:18:38;18.70;99.90
23637;DHT22;11995;50.842;4.456;2022-08-19T05:21:23;18.60;99.90
23637;DHT22;11995;50.842;4.456;2022-08-19T05:24:09;18.50;99.90
23637;DHT22;11995;50.842;4.456;2022-08-19T05:26:40;18.50;99.90
23637;DHT22;11995;50.842;4.456;2022-08-19T05:29:07;18.60;99.90
23637;DHT22;11995;50.842;4.456;2022-08-19T05:31:36;18.70;99.90
23637;DHT22;11995;50.842;4.456;2022-08-19T05:34:06;18.70;99.90
23637;DHT22;11995;50.842;4.456;2022-08-19T05:36:36;18.70;99.90
23637;DHT22;11995;50.842;4.456;2022-08-19T05:39:07;18.80;99.90
23637;DHT22;11995;50.842;4.456;2022-08-19T05:41:34;18.80;99.90
23637;DHT22;11995;50.842;4.456;2022-08-19T05:44:01;18.60;99.90
23637;DHT22;11995;50.842;4.456;2022-08-19T05:46:30;18.50;99.90
23637;DHT22;11995;50.842;4.456;2022-08-19T05:48:58;18.60;99.90
23637;DHT22;11995;50.842;4.456;2022-08-19T05:51:25;18.60;99.90
23637;DHT22;11995;50.842;4.456;2022-08-19T05:53:52;18.60;99.90
23637;DHT22;11995;50.842;4.456;2022-08-19T05:56:18;18.70;99.90
23637;DHT22;11995;50.842;4.456;2022-08-19T05:58:46;18.80;99.90
23637;DHT22;11995;50.842;4.456;2022-08-19T06:01:14;18.90;99.90
23637;DHT22;11995;50.842;4.456;2022-08-19T06:03:42;19.00;99.90
23637;DHT22;11995;50.842;4.456;2022-08-19T06:06:11;19.10;99.90
23637;DHT22;11995;50.842;4.456;2022-08-19T06:08:39;19.20;99.90
23637;DHT22;11995;50.842;4.456;2022-08-19T06:11:19;19.30;99.90
23637;DHT22;11995;50.842;4.456;2022-08-19T06:13:47;19.50;99.90
23637;DHT22;11995;50.842;4.456;2022-08-19T06:16:16;19.60;99.90
23637;DHT22;11995;50.842;4.456;2022-08-19T06:18:46;19.70;99.90
23637;DHT22;11995;50.842;4.456;2022-08-19T06:21:13;19.70;99.90
23637;DHT22;11995;50.842;4.456;2022-08-19T06:23:39;19.60;99.90
23637;DHT22;11995;50.842;4.456;2022-08-19T06:26:07;19.70;99.90
23637;DHT22;11995;50.842;4.456;2022-08-19T06:28:36;19.70;99.90
23637;DHT22;11995;50.842;4.456;2022-08-19T06:31:06;19.80;99.90
23637;DHT22;11995;50.842;4.456;2022-08-19T06:33:33;20.00;99.90
23637;DHT22;11995;50.842;4.456;2022-08-19T06:36:00;20.20;99.90
23637;DHT22;11995;50.842;4.456;2022-08-19T06:38:28;20.10;99.90
23637;DHT22;11995;50.842;4.456;2022-08-19T06:41:02;20.20;99.90
23637;DHT22;11995;50.842;4.456;2022-08-19T06:43:29;20.30;99.90
23637;DHT22;11995;50.842;4.456;2022-08-19T06:45:56;20.30;99.90
23637;DHT22;11995;50.842;4.456;2022-08-19T06:48:24;20.50;99.90
23637;DHT22;11995;50.842;4.456;2022-08-19T06:50:51;20.70;99.90
23637;DHT22;11995;50.842;4.456;2022-08-19T06:53:18;20.80;99.90
23637;DHT22;11995;50.842;4.456;2022-08-19T06:55:45;21.00;99.90
23637;DHT22;11995;50.842;4.456;2022-08-19T06:58:13;21.20;99.90
23637;DHT22;11995;50.842;4.456;2022-08-19T07:00:40;21.20;99.90
23637;DHT22;11995;50.842;4.456;2022-08-19T07:03:06;21.20;99.90
23637;DHT22;11995;50.842;4.456;2022-08-19T07:05:37;21.20;99.90
23637;DHT22;11995;50.842;4.456;2022-08-19T07:08:02;21.30;99.90
23637;DHT22;11995;50.842;4.456;2022-08-19T07:10:30;21.40;99.90
23637;DHT22;11995;50.842;4.456;2022-08-19T07:12:58;21.50;99.90
23637;DHT22;11995;50.842;4.456;2022-08-19T07:15:25;21.40;99.90
23637;DHT22;11995;50.842;4.456;2022-08-19T07:17:53;21.50;99.90
23637;DHT22;11995;50.842;4.456;2022-08-19T07:20:19;21.70;99.90
23637;DHT22;11995;50.842;4.456;2022-08-19T07:22:47;21.80;99.90
23637;DHT22;11995;50.842;4.456;2022-08-19T07:25:15;21.70;99.90
23637;DHT22;11995;50.842;4.456;2022-08-19T07:27:43;21.10;99.90
23637;DHT22;11995;50.842;4.456;2022-08-19T07:30:10;21.00;99.90
23637;DHT22;11995;50.842;4.456;2022-08-19T07:32:37;21.30;99.90
23637;DHT22;11995;50.842;4.456;2022-08-19T07:35:05;21.40;99.90
23637;DHT22;11995;50.842;4.456;2022-08-19T07:37:33;21.50;99.90
23637;DHT22;11995;50.842;4.456;2022-08-19T07:40:01;21.50;99.90
23637;DHT22;11995;50.842;4.456;2022-08-19T07:42:28;21.40;99.90
23637;DHT22;11995;50.842;4.456;2022-08-19T07:44:55;21.30;99.90
23637;DHT22;11995;50.842;4.456;2022-08-19T07:47:22;21.20;99.90
23637;DHT22;11995;50.842;4.456;2022-08-19T07:49:49;21.20;99.90
23637;DHT22;11995;50.842;4.456;2022-08-19T07:52:16;21.20;99.90
23637;DHT22;11995;50.842;4.456;2022-08-19T07:54:42;21.30;99.90
23637;DHT22;11995;50.842;4.456;2022-08-19T07:57:10;21.10;99.90
23637;DHT22;11995;50.842;4.456;2022-08-19T07:59:37;20.90;99.90
23637;DHT22;11995;50.842;4.456;2022-08-19T08:02:03;21.10;99.90
23637;DHT22;11995;50.842;4.456;2022-08-19T08:04:31;21.30;99.90
23637;DHT22;11995;50.842;4.456;2022-08-19T08:07:15;21.50;99.90
23637;DHT22;11995;50.842;4.456;2022-08-19T08:10:00;21.60;99.90
23637;DHT22;11995;50.842;4.456;2022-08-19T08:12:31;21.70;99.90
23637;DHT22;11995;50.842;4.456;2022-08-19T08:14:58;21.70;99.90
23637;DHT22;11995;50.842;4.456;2022-08-19T08:17:28;21.80;99.90
23637;DHT22;11995;50.842;4.456;2022-08-19T08:19:55;21.90;99.90
23637;DHT22;11995;50.842;4.456;2022-08-19T08:22:23;21.80;99.90
23637;DHT22;11995;50.842;4.456;2022-08-19T08:25:12;21.70;99.90
23637;DHT22;11995;50.842;4.456;2022-08-19T08:27:41;21.80;99.90
23637;DHT22;11995;50.842;4.456;2022-08-19T08:30:18;21.90;99.90
23637;DHT22;11995;50.842;4.456;2022-08-19T08:32:38;22.00;99.90
23637;DHT22;11995;50.842;4.456;2022-08-19T08:35:06;22.20;99.90
23637;DHT22;11995;50.842;4.456;2022-08-19T08:37:34;22.40;99.90
23637;DHT22;11995;50.842;4.456;2022-08-19T08:40:07;22.40;99.90
23637;DHT22;11995;50.842;4.456;2022-08-19T08:42:34;22.20;99.90
23637;DHT22;11995;50.842;4.456;2022-08-19T08:45:06;22.20;99.90
23637;DHT22;11995;50.842;4.456;2022-08-19T08:47:35;22.20;99.90
23637;DHT22;11995;50.842;4.456;2022-08-19T08:50:05;22.20;99.90
23637;DHT22;11995;50.842;4.456;2022-08-19T08:52:36;22.30;99.90
23637;DHT22;11995;50.842;4.456;2022-08-19T08:55:07;22.30;99.90
23637;DHT22;11995;50.842;4.456;2022-08-19T08:57:44;22.40;99.90
23637;DHT22;11995;50.842;4.456;2022-08-19T09:00:10;22.30;99.90
23637;DHT22;11995;50.842;4.456;2022-08-19T09:02:36;22.50;99.90
23637;DHT22;11995;50.842;4.456;2022-08-19T09:05:04;22.60;99.90
23637;DHT22;11995;50.842;4.456;2022-08-19T09:10:21;22.40;99.90
23637;DHT22;11995;50.842;4.456;2022-08-19T09:15:44;22.60;99.90
23637;DHT22;11995;50.842;4.456;2022-08-19T09:18:04;22.50;99.90
23637;DHT22;11995;50.842;4.456;2022-08-19T09:20:33;22.40;99.90
23637;DHT22;11995;50.842;4.456;2022-08-19T09:23:05;22.40;99.90
23637;DHT22;11995;50.842;4.456;2022-08-19T09:25:34;22.30;99.90
23637;DHT22;11995;50.842;4.456;2022-08-19T09:28:02;22.40;99.90
23637;DHT22;11995;50.842;4.456;2022-08-19T09:30:32;22.50;99.90
23637;DHT22;11995;50.842;4.456;2022-08-19T09:32:59;22.50;99.90
23637;DHT22;11995;50.842;4.456;2022-08-19T09:35:27;22.40;99.90
23637;DHT22;11995;50.842;4.456;2022-08-19T09:37:55;22.40;99.90
23637;DHT22;11995;50.842;4.456;2022-08-19T09:40:23;22.40;99.90
23637;DHT22;11995;50.842;4.456;2022-08-19T09:42:51;22.70;99.90
23637;DHT22;11995;50.842;4.456;2022-08-19T09:45:19;22.90;99.90
23637;DHT22;11995;50.842;4.456;2022-08-19T09:47:48;23.00;99.90
23637;DHT22;11995;50.842;4.456;2022-08-19T09:50:16;23.00;99.90
23637;DHT22;11995;50.842;4.456;2022-08-19T09:52:44;22.90;99.90
23637;DHT22;11995;50.842;4.456;2022-08-19T09:55:13;22.80;99.90
23637;DHT22;11995;50.842;4.456;2022-08-19T09:57:41;22.70;99.90
23637;DHT22;11995;50.842;4.456;2022-08-19T10:00:08;22.70;99.90
23637;DHT22;11995;50.842;4.456;2022-08-19T10:02:36;22.90;99.90
23637;DHT22;11995;50.842;4.456;2022-08-19T10:05:03;23.10;99.90
23637;DHT22;11995;50.842;4.456;2022-08-19T10:07:48;23.30;99.90
23637;DHT22;11995;50.842;4.456;2022-08-19T10:10:16;23.20;99.90
23637;DHT22;11995;50.842;4.456;2022-08-19T10:12:44;23.20;99.90
23637;DHT22;11995;50.842;4.456;2022-08-19T10:15:13;23.00;99.90
23637;DHT22;11995;50.842;4.456;2022-08-19T10:17:40;22.70;99.90
23637;DHT22;11995;50.842;4.456;2022-08-19T10:20:06;22.50;99.90
23637;DHT22;11995;50.842;4.456;2022-08-19T10:22:33;22.60;99.90
23637;DHT22;11995;50.842;4.456;2022-08-19T10:25:02;22.60;99.90
23637;DHT22;11995;50.842;4.456;2022-08-19T10:27:29;22.90;99.90
23637;DHT22;11995;50.842;4.456;2022-08-19T10:29:56;23.00;99.90
23637;DHT22;11995;50.842;4.456;2022-08-19T10:32:23;23.20;99.90
23637;DHT22;11995;50.842;4.456;2022-08-19T10:34:51;23.30;99.90
23637;DHT22;11995;50.842;4.456;2022-08-19T10:37:18;23.30;99.90
23637;DHT22;11995;50.842;4.456;2022-08-19T10:39:45;23.10;99.90
23637;DHT22;11995;50.842;4.456;2022-08-19T10:42:13;23.20;99.90
23637;DHT22;11995;50.842;4.456;2022-08-19T10:44:41;23.30;99.90
23637;DHT22;11995;50.842;4.456;2022-08-19T10:47:08;23.20;99.90
23637;DHT22;11995;50.842;4.456;2022-08-19T10:49:36;23.00;99.90
23637;DHT22;11995;50.842;4.456;2022-08-19T10:52:10;22.70;99.90
23637;DHT22;11995;50.842;4.456;2022-08-19T10:54:55;22.70;99.90
23637;DHT22;11995;50.842;4.456;2022-08-19T10:57:40;22.90;99.90
23637;DHT22;11995;50.842;4.456;2022-08-19T11:00:07;23.10;99.90
23637;DHT22;11995;50.842;4.456;2022-08-19T11:02:34;23.20;99.90
23637;DHT22;11995;50.842;4.456;2022-08-19T11:05:02;23.20;99.90
23637;DHT22;11995;50.842;4.456;2022-08-19T11:07:29;23.10;99.90
23637;DHT22;11995;50.842;4.456;2022-08-19T11:09:56;22.90;99.90
23637;DHT22;11995;50.842;4.456;2022-08-19T11:12:23;23.10;99.90
23637;DHT22;11995;50.842;4.456;2022-08-19T11:14:51;23.40;99.90
23637;DHT22;11995;50.842;4.456;2022-08-19T11:17:19;23.60;99.90
23637;DHT22;11995;50.842;4.456;2022-08-19T11:19:45;23.70;99.90
23637;DHT22;11995;50.842;4.456;2022-08-19T11:22:14;23.80;99.90
23637;DHT22;11995;50.842;4.456;2022-08-19T11:24:40;23.70;99.90
23637;DHT22;11995;50.842;4.456;2022-08-19T11:27:08;23.30;99.90
23637;DHT22;11995;50.842;4.456;2022-08-19T11:29:39;23.20;99.90
23637;DHT22;11995;50.842;4.456;2022-08-19T11:32:07;23.30;99.90
23637;DHT22;11995;50.842;4.456;2022-08-19T11:34:35;23.30;99.90
23637;DHT22;11995;50.842;4.456;2022-08-19T11:37:02;23.40;99.90
23637;DHT22;11995;50.842;4.456;2022-08-19T11:39:30;23.20;99.90
23637;DHT22;11995;50.842;4.456;2022-08-19T11:41:58;23.10;99.90
23637;DHT22;11995;50.842;4.456;2022-08-19T11:44:25;23.10;99.90
23637;DHT22;11995;50.842;4.456;2022-08-19T11:46:53;23.10;99.90
23637;DHT22;11995;50.842;4.456;2022-08-19T11:49:20;23.00;99.90
23637;DHT22;11995;50.842;4.456;2022-08-19T11:51:47;23.00;99.90
23637;DHT22;11995;50.842;4.456;2022-08-19T11:54:16;23.00;99.90
23637;DHT22;11995;50.842;4.456;2022-08-19T11:56:43;23.20;99.90
23637;DHT22;11995;50.842;4.456;2022-08-19T11:59:11;23.50;99.90
23637;DHT22;11995;50.842;4.456;2022-08-19T12:01:38;23.60;99.90
23637;DHT22;11995;50.842;4.456;2022-08-19T12:04:07;23.80;99.90
23637;DHT22;11995;50.842;4.456;2022-08-19T12:06:37;23.60;99.90
23637;DHT22;11995;50.842;4.456;2022-08-19T12:09:05;23.60;99.90
23637;DHT22;11995;50.842;4.456;2022-08-19T12:11:34;23.70;99.90
23637;DHT22;11995;50.842;4.456;2022-08-19T12:14:02;23.60;99.90
23637;DHT22;11995;50.842;4.456;2022-08-19T12:16:30;23.90;99.90
23637;DHT22;11995;50.842;4.456;2022-08-19T12:18:59;24.10;99.90
23637;DHT22;11995;50.842;4.456;2022-08-19T12:21:29;24.20;99.90
23637;DHT22;11995;50.842;4.456;2022-08-19T12:23:57;24.60;99.90
23637;DHT22;11995;50.842;4.456;2022-08-19T12:26:24;24.50;99.90
23637;DHT22;11995;50.842;4.456;2022-08-19T12:28:52;24.50;99.90
23637;DHT22;11995;50.842;4.456;2022-08-19T12:31:19;24.40;99.90
23637;DHT22;11995;50.842;4.456;2022-08-19T12:33:47;24.40;99.90
23637;DHT22;11995;50.842;4.456;2022-08-19T12:36:14;24.40;99.90
23637;DHT22;11995;50.842;4.456;2022-08-19T12:38:43;24.80;99.90
23637;DHT22;11995;50.842;4.456;2022-08-19T12:41:11;24.90;99.90
23637;DHT22;11995;50.842;4.456;2022-08-19T12:43:38;25.00;99.90
23637;DHT22;11995;50.842;4.456;2022-08-19T12:46:07;24.90;99.90
23637;DHT22;11995;50.842;4.456;2022-08-19T12:48:35;24.90;99.90
23637;DHT22;11995;50.842;4.456;2022-08-19T12:51:06;24.90;99.90
23637;DHT22;11995;50.842;4.456;2022-08-19T12:53:33;24.90;99.90
23637;DHT22;11995;50.842;4.456;2022-08-19T12:55:59;25.00;99.90
23637;DHT22;11995;50.842;4.456;2022-08-19T12:58:26;25.10;99.90
23637;DHT22;11995;50.842;4.456;2022-08-19T13:00:54;25.30;99.90
23637;DHT22;11995;50.842;4.456;2022-08-19T13:03:21;25.50;99.90
23637;DHT22;11995;50.842;4.456;2022-08-19T13:05:50;25.60;99.90
23637;DHT22;11995;50.842;4.456;2022-08-19T13:08:17;25.70;99.90
23637;DHT22;11995;50.842;4.456;2022-08-19T13:10:43;25.70;99.90
23637;DHT22;11995;50.842;4.456;2022-08-19T13:13:10;25.60;99.90
23637;DHT22;11995;50.842;4.456;2022-08-19T13:15:40;25.40;99.90
23637;DHT22;11995;50.842;4.456;2022-08-19T13:18:06;25.30;99.90
23637;DHT22;11995;50.842;4.456;2022-08-19T13:20:34;25.20;99.90
23637;DHT22;11995;50.842;4.456;2022-08-19T13:23:01;25.20;99.90
23637;DHT22;11995;50.842;4.456;2022-08-19T13:25:28;25.00;99.90
23637;DHT22;11995;50.842;4.456;2022-08-19T13:27:55;25.10;99.90
23637;DHT22;11995;50.842;4.456;2022-08-19T13:30:22;25.20;99.90
23637;DHT22;11995;50.842;4.456;2022-08-19T13:33:07;25.20;99.90
23637;DHT22;11995;50.842;4.456;2022-08-19T13:35:38;25.30;99.90
23637;DHT22;11995;50.842;4.456;2022-08-19T13:38:05;25.50;99.90
23637;DHT22;11995;50.842;4.456;2022-08-19T13:40:33;25.20;99.90
23637;DHT22;11995;50.842;4.456;2022-08-19T13:43:00;24.90;99.90
23637;DHT22;11995;50.842;4.456;2022-08-19T13:45:28;24.90;99.90
23637;DHT22;11995;50.842;4.456;2022-08-19T13:47:55;25.10;99.90
23637;DHT22;11995;50.842;4.456;2022-08-19T13:50:25;25.20;99.90
23637;DHT22;11995;50.842;4.456;2022-08-19T13:52:51;25.10;99.90
23637;DHT22;11995;50.842;4.456;2022-08-19T13:55:19;25.00;99.90
23637;DHT22;11995;50.842;4.456;2022-08-19T13:57:50;24.90;99.90
23637;DHT22;11995;50.842;4.456;2022-08-19T14:00:16;24.90;99.90
23637;DHT22;11995;50.842;4.456;2022-08-19T14:02:45;24.90;99.90
23637;DHT22;11995;50.842;4.456;2022-08-19T14:05:14;25.00;99.90
23637;DHT22;11995;50.842;4.456;2022-08-19T14:07:41;25.00;99.90
23637;DHT22;11995;50.842;4.456;2022-08-19T14:10:09;24.70;99.90
23637;DHT22;11995;50.842;4.456;2022-08-19T14:12:36;24.80;99.90
23637;DHT22;11995;50.842;4.456;2022-08-19T14:15:04;24.70;99.90
23637;DHT22;11995;50.842;4.456;2022-08-19T14:17:31;24.50;99.90
23637;DHT22;11995;50.842;4.456;2022-08-19T14:20:05;24.50;99.90
23637;DHT22;11995;50.842;4.456;2022-08-19T14:22:30;24.30;99.90
23637;DHT22;11995;50.842;4.456;2022-08-19T14:24:56;24.30;99.90
23637;DHT22;11995;50.842;4.456;2022-08-19T14:27:27;24.20;99.90
23637;DHT22;11995;50.842;4.456;2022-08-19T14:29:55;23.80;99.90
23637;DHT22;11995;50.842;4.456;2022-08-19T14:32:22;23.60;99.90
23637;DHT22;11995;50.842;4.456;2022-08-19T14:34:51;23.60;99.90
23637;DHT22;11995;50.842;4.456;2022-08-19T14:37:18;23.40;99.90
23637;DHT22;11995;50.842;4.456;2022-08-19T14:39:45;23.50;99.90
23637;DHT22;11995;50.842;4.456;2022-08-19T14:42:12;23.60;99.90
23637;DHT22;11995;50.842;4.456;2022-08-19T14:44:41;23.80;99.90
23637;DHT22;11995;50.842;4.456;2022-08-19T14:47:08;23.90;99.90
23637;DHT22;11995;50.842;4.456;2022-08-19T14:49:35;23.90;99.90
23637;DHT22;11995;50.842;4.456;2022-08-19T14:52:03;23.70;99.90
23637;DHT22;11995;50.842;4.456;2022-08-19T14:54:30;23.50;99.90
23637;DHT22;11995;50.842;4.456;2022-08-19T14:56:57;23.60;99.90
23637;DHT22;11995;50.842;4.456;2022-08-19T14:59:24;23.40;99.90
23637;DHT22;11995;50.842;4.456;2022-08-19T15:01:50;23.30;99.90
23637;DHT22;11995;50.842;4.456;2022-08-19T15:04:17;23.40;99.90
23637;DHT22;11995;50.842;4.456;2022-08-19T15:06:44;23.30;99.90
23637;DHT22;11995;50.842;4.456;2022-08-19T15:09:11;23.50;99.90
23637;DHT22;11995;50.842;4.456;2022-08-19T15:11:38;23.70;99.90
23637;DHT22;11995;50.842;4.456;2022-08-19T15:14:05;23.90;99.90
23637;DHT22;11995;50.842;4.456;2022-08-19T15:16:32;24.10;99.90
23637;DHT22;11995;50.842;4.456;2022-08-19T15:18:59;24.20;99.90
23637;DHT22;11995;50.842;4.456;2022-08-19T15:21:27;24.20;99.90
23637;DHT22;11995;50.842;4.456;2022-08-19T15:23:58;24.20;99.90
23637;DHT22;11995;50.842;4.456;2022-08-19T15:26:25;24.10;99.90
23637;DHT22;11995;50.842;4.456;2022-08-19T15:28:54;24.20;99.90
23637;DHT22;11995;50.842;4.456;2022-08-19T15:31:21;24.00;99.90
23637;DHT22;11995;50.842;4.456;2022-08-19T15:33:48;23.90;99.90
23637;DHT22;11995;50.842;4.456;2022-08-19T15:36:16;24.00;99.90
23637;DHT22;11995;50.842;4.456;2022-08-19T15:38:43;24.10;99.90
23637;DHT22;11995;50.842;4.456;2022-08-19T15:41:19;24.20;99.90
23637;DHT22;11995;50.842;4.456;2022-08-19T15:43:55;24.10;99.90
23637;DHT22;11995;50.842;4.456;2022-08-19T15:46:24;24.20;99.90